createdAt,value
2018-04-11T00:00:50.925Z,67.00
2018-04-11T00:03:17.030Z,66.10
2018-04-11T00:05:43.133Z,66.40
2018-04-11T00:08:09.268Z,65.90
2018-04-11T00:10:35.373Z,65.80
2018-04-11T00:13:01.472Z,65.90
2018-04-11T00:15:27.602Z,66.10
2018-04-11T00:17:53.719Z,66.40
2018-04-11T00:20:20.595Z,66.50
2018-04-11T00:22:46.742Z,66.40
2018-04-11T00:25:13.883Z,66.20
2018-04-11T00:27:39.976Z,66.30
2018-04-11T00:30:06.082Z,66.30
2018-04-11T00:32:33.127Z,66.00
2018-04-11T00:35:00.148Z,66.40
2018-04-11T00:37:26.310Z,66.40
2018-04-11T00:39:52.497Z,66.60
2018-04-11T00:42:18.657Z,66.60
2018-04-11T00:44:44.847Z,66.70
2018-04-11T00:47:11.072Z,67.30
2018-04-11T00:49:37.269Z,67.20
2018-04-11T00:52:03.455Z,67.20
2018-04-11T00:54:29.659Z,66.40
2018-04-11T00:56:55.921Z,67.00
2018-04-11T00:59:22.153Z,67.00
2018-04-11T01:01:48.862Z,66.70
2018-04-11T01:04:15.912Z,67.10
2018-04-11T01:06:42.125Z,66.50
2018-04-11T01:09:08.317Z,67.00
2018-04-11T01:11:34.596Z,66.50
2018-04-11T01:14:00.846Z,66.40
2018-04-11T01:16:27.131Z,66.90
2018-04-11T01:18:53.321Z,67.70
2018-04-11T01:21:19.511Z,68.30
2018-04-11T01:23:45.681Z,68.30
2018-04-11T01:26:11.888Z,68.60
2018-04-11T01:28:38.044Z,68.50
2018-04-11T01:31:04.227Z,68.50
2018-04-11T01:33:30.426Z,68.00
2018-04-11T01:35:57.392Z,67.50
2018-04-11T01:38:23.551Z,67.50
2018-04-11T01:40:49.663Z,67.40
2018-04-11T01:43:15.814Z,67.40
2018-04-11T01:45:41.922Z,67.50
2018-04-11T01:48:08.022Z,67.60
2018-04-11T01:50:34.156Z,67.70
2018-04-11T01:53:00.271Z,68.50
2018-04-11T01:55:26.979Z,67.20
2018-04-11T01:57:53.121Z,67.30
2018-04-11T02:00:19.230Z,67.40
2018-04-11T02:02:45.341Z,67.00
2018-04-11T02:05:11.471Z,67.00
2018-04-11T02:07:37.683Z,67.50
2018-04-11T02:10:03.816Z,67.00
2018-04-11T02:12:29.919Z,67.10
2018-04-11T02:14:56.038Z,66.80
2018-04-11T02:17:22.741Z,66.90
2018-04-11T02:19:48.955Z,66.70
2018-04-11T02:22:15.134Z,66.40
2018-04-11T02:24:41.250Z,66.50
2018-04-11T02:27:07.364Z,67.30
2018-04-11T02:29:33.492Z,66.80
2018-04-11T02:31:59.761Z,67.40
2018-04-11T02:34:25.849Z,66.80
2018-04-11T02:36:51.959Z,67.40
2018-04-11T02:39:18.083Z,67.20
2018-04-11T02:41:44.198Z,66.90
2018-04-11T02:44:10.328Z,66.80
2018-04-11T02:46:36.433Z,67.10
2018-04-11T02:49:03.282Z,66.60
2018-04-11T02:51:29.403Z,66.60
2018-04-11T02:53:56.253Z,66.10
2018-04-11T02:56:22.388Z,66.00
2018-04-11T02:58:48.568Z,66.10
2018-04-11T03:01:14.691Z,66.80
2018-04-11T03:03:40.781Z,66.70
2018-04-11T03:06:06.891Z,67.00
2018-04-11T03:08:33.930Z,66.90
2018-04-11T03:11:00.029Z,66.70
2018-04-11T03:13:26.129Z,66.70
2018-04-11T03:15:52.239Z,67.00
2018-04-11T03:18:18.381Z,66.90
2018-04-11T03:20:44.466Z,66.70
2018-04-11T03:23:10.634Z,66.80
2018-04-11T03:25:36.738Z,67.00
2018-04-11T03:28:02.851Z,67.20
2018-04-11T03:30:28.983Z,67.20
2018-04-11T03:32:55.182Z,67.30
2018-04-11T03:35:21.342Z,67.30
2018-04-11T03:37:47.487Z,67.20
2018-04-11T03:40:13.571Z,67.20
2018-04-11T03:42:39.685Z,67.40
2018-04-11T03:45:05.770Z,67.70
2018-04-11T03:47:31.887Z,67.90
2018-04-11T03:49:58.006Z,67.40
2018-04-11T03:52:24.107Z,67.60
2018-04-11T03:54:50.233Z,67.50
2018-04-11T03:57:16.334Z,67.60
2018-04-11T03:59:42.486Z,67.10
2018-04-11T04:02:08.675Z,67.00
2018-04-11T04:04:34.887Z,67.30
2018-04-11T04:07:01.134Z,67.70
2018-04-11T04:09:27.307Z,67.30
2018-04-11T04:11:53.411Z,67.20
2018-04-11T04:14:31.759Z,67.20
2018-04-11T04:17:10.088Z,67.30
2018-04-11T04:19:39.695Z,67.50
2018-04-11T04:22:06.530Z,67.50
2018-04-11T04:24:33.471Z,68.10
2018-04-11T04:26:59.551Z,67.70
2018-04-11T04:29:25.694Z,67.40
2018-04-11T04:31:51.818Z,67.60
2018-04-11T04:34:17.947Z,67.50
2018-04-11T04:36:44.362Z,67.90
2018-04-11T04:39:10.454Z,68.00
2018-04-11T04:41:36.605Z,68.00
2018-04-11T04:44:02.793Z,67.70
2018-04-11T04:46:28.956Z,67.90
2018-04-11T04:48:55.107Z,68.40
2018-04-11T04:51:21.234Z,68.10
2018-04-11T04:53:47.343Z,68.20
2018-04-11T04:56:14.095Z,68.30
2018-04-11T04:58:40.211Z,68.60
2018-04-11T05:01:06.350Z,68.40
2018-04-11T05:03:32.481Z,68.10
2018-04-11T05:05:58.606Z,68.00
2018-04-11T05:08:24.808Z,68.30
2018-04-11T05:10:51.023Z,67.90
2018-04-11T05:13:17.146Z,67.50
2018-04-11T05:15:43.250Z,67.60
2018-04-11T05:18:09.371Z,67.70
2018-04-11T05:20:35.609Z,67.90
2018-04-11T05:23:01.794Z,68.00
2018-04-11T05:25:27.949Z,68.10
2018-04-11T05:27:54.117Z,67.40
2018-04-11T05:30:20.245Z,67.50
2018-04-11T05:32:46.400Z,67.30
2018-04-11T05:35:12.597Z,67.30
2018-04-11T05:37:38.706Z,67.30
2018-04-11T05:40:04.937Z,67.60
2018-04-11T05:42:31.720Z,67.70
2018-04-11T05:44:58.579Z,67.80
2018-04-11T05:47:24.675Z,67.80
2018-04-11T05:49:50.903Z,67.90
2018-04-11T05:52:17.085Z,68.20
2018-04-11T05:54:43.215Z,67.60
2018-04-11T05:57:09.322Z,68.20
2018-04-11T05:59:35.431Z,67.80
2018-04-11T06:02:01.564Z,67.80
2018-04-11T06:04:28.470Z,68.00
2018-04-11T06:06:54.590Z,68.00
2018-04-11T06:09:20.705Z,68.00
2018-04-11T06:11:46.809Z,68.00
2018-04-11T06:14:12.970Z,67.60
2018-04-11T06:16:39.166Z,67.40
2018-04-11T06:19:05.446Z,67.50
2018-04-11T06:21:32.350Z,67.70
2018-04-11T06:23:58.446Z,67.70
2018-04-11T06:26:24.562Z,67.60
2018-04-11T06:28:50.653Z,67.50
2018-04-11T06:31:17.526Z,67.40
2018-04-11T06:33:43.717Z,67.40
2018-04-11T06:36:09.854Z,67.90
2018-04-11T06:38:35.974Z,68.20
2018-04-11T06:41:02.091Z,67.80
2018-04-11T06:43:28.972Z,68.20
2018-04-11T06:45:55.119Z,68.20
2018-04-11T06:48:21.263Z,67.70
2018-04-11T06:50:47.430Z,68.00
2018-04-11T06:53:13.615Z,68.20
2018-04-11T06:55:39.751Z,67.50
2018-04-11T06:58:05.870Z,67.70
2018-04-11T07:00:31.998Z,67.70
2018-04-11T07:02:58.157Z,67.30
2018-04-11T07:05:24.267Z,67.60
2018-04-11T07:07:50.382Z,67.90
2018-04-11T07:10:17.252Z,68.10
2018-04-11T07:12:44.560Z,68.10
2018-04-11T07:15:11.227Z,68.00
2018-04-11T07:17:37.461Z,68.30
2018-04-11T07:20:03.635Z,68.60
2018-04-11T07:22:29.807Z,68.30
2018-04-11T07:24:55.969Z,68.10
2018-04-11T07:27:22.079Z,68.10
2018-04-11T07:29:48.238Z,67.50
2018-04-11T07:32:14.338Z,67.70
2018-04-11T07:34:40.503Z,67.80
2018-04-11T07:37:06.641Z,67.80
2018-04-11T07:39:32.827Z,68.10
2018-04-11T07:41:58.960Z,68.00
2018-04-11T07:44:25.078Z,68.90
2018-04-11T07:46:51.200Z,68.50
2018-04-11T07:49:17.394Z,69.00
2018-04-11T07:51:43.612Z,68.50
2018-04-11T07:54:10.534Z,68.20
2018-04-11T07:56:36.671Z,68.10
2018-04-11T07:59:03.615Z,68.30
2018-04-11T08:01:29.750Z,68.30
2018-04-11T08:03:55.866Z,68.00
2018-04-11T08:06:22.044Z,68.40
2018-04-11T08:08:48.170Z,67.70
2018-04-11T08:11:14.320Z,67.30
2018-04-11T08:13:40.436Z,67.40
2018-04-11T08:16:06.579Z,68.30
2018-04-11T08:18:32.704Z,68.00
2018-04-11T08:20:58.846Z,67.60
2018-04-11T08:23:29.650Z,66.70
2018-04-11T08:25:55.886Z,66.70
2018-04-11T08:28:22.020Z,66.80
2018-04-11T08:30:48.139Z,67.30
2018-04-11T08:33:14.270Z,67.00
2018-04-11T08:35:41.199Z,67.00
2018-04-11T08:38:07.313Z,67.00
2018-04-11T08:40:33.587Z,66.80
2018-04-11T08:42:59.751Z,67.00
2018-04-11T08:45:25.962Z,67.00
2018-04-11T08:47:52.088Z,67.00
2018-04-11T08:50:18.175Z,67.00
2018-04-11T08:52:44.282Z,66.70
2018-04-11T08:55:10.374Z,66.90
2018-04-11T08:57:36.531Z,67.10
2018-04-11T09:00:02.648Z,66.70
2018-04-11T09:02:28.813Z,67.10
2018-04-11T09:04:54.962Z,66.30
2018-04-11T09:07:21.090Z,66.10
2018-04-11T09:09:47.289Z,66.10
2018-04-11T09:12:13.534Z,66.00
2018-04-11T09:14:39.737Z,67.20
2018-04-11T09:17:05.889Z,66.00
2018-04-11T09:19:31.994Z,65.10
2018-04-11T09:21:58.918Z,63.60
2018-04-11T09:24:25.050Z,63.50
2018-04-11T09:26:51.899Z,64.20
2018-04-11T09:29:18.746Z,64.80
2018-04-11T09:31:44.974Z,64.70
2018-04-11T09:34:11.129Z,64.40
2018-04-11T09:36:37.276Z,65.00
2018-04-11T09:39:03.435Z,64.70
2018-04-11T09:41:29.575Z,64.50
2018-04-11T09:43:56.487Z,61.90
2018-04-11T09:46:22.594Z,61.90
2018-04-11T09:48:48.752Z,61.50
2018-04-11T09:51:14.845Z,61.40
2018-04-11T09:53:40.981Z,61.00
2018-04-11T09:56:07.175Z,60.80
2018-04-11T09:58:33.294Z,62.20
2018-04-11T10:00:59.445Z,62.40
2018-04-11T10:03:34.811Z,61.80
2018-04-11T10:06:00.999Z,62.30
2018-04-11T10:08:28.991Z,61.80
2018-04-11T10:10:55.224Z,62.10
2018-04-11T10:13:21.615Z,62.00
2018-04-11T10:15:47.791Z,62.90
2018-04-11T10:18:13.934Z,61.70
2018-04-11T10:20:40.763Z,61.80
2018-04-11T10:23:06.969Z,61.70
2018-04-11T10:25:33.098Z,62.00
2018-04-11T10:28:00.791Z,62.80
2018-04-11T10:30:26.943Z,62.50
2018-04-11T10:32:53.129Z,62.10
2018-04-11T10:35:19.350Z,61.60
2018-04-11T10:37:45.510Z,62.00
2018-04-11T10:40:11.895Z,60.90
2018-04-11T10:42:38.127Z,61.40
2018-04-11T10:45:05.063Z,60.30
2018-04-11T10:47:31.237Z,61.60
2018-04-11T10:49:57.367Z,61.00
2018-04-11T10:52:23.598Z,60.70
2018-04-11T10:54:49.742Z,61.10
2018-04-11T10:57:15.973Z,59.70
2018-04-11T10:59:42.094Z,59.90
2018-04-11T11:02:08.436Z,59.50
2018-04-11T11:04:34.572Z,59.90
2018-04-11T11:07:00.684Z,59.40
2018-04-11T11:09:26.847Z,59.00
2018-04-11T11:11:54.015Z,58.60
2018-04-11T11:14:20.263Z,58.70
2018-04-11T11:16:46.403Z,59.30
2018-04-11T11:19:12.555Z,57.70
2018-04-11T11:21:38.766Z,58.20
2018-04-11T11:24:05.161Z,58.60
2018-04-11T11:26:31.651Z,60.10
2018-04-11T11:28:57.900Z,60.40
2018-04-11T11:31:24.041Z,57.50
2018-04-11T11:33:50.156Z,56.50
2018-04-11T11:36:17.283Z,56.20
2018-04-11T11:38:44.051Z,56.50
2018-04-11T11:41:10.308Z,55.10
2018-04-11T11:43:36.444Z,53.70
2018-04-11T11:46:02.722Z,54.50
2018-04-11T11:48:29.607Z,54.10
2018-04-11T11:50:56.163Z,54.10
2018-04-11T11:53:22.909Z,52.90
2018-04-11T11:55:49.071Z,52.70
2018-04-11T11:58:15.368Z,51.70
2018-04-11T12:00:42.235Z,49.00
2018-04-11T12:03:08.395Z,51.90
2018-04-11T12:05:34.593Z,53.20
2018-04-11T12:08:00.840Z,53.20
2018-04-11T12:10:27.011Z,53.60
2018-04-11T12:12:53.140Z,52.40
2018-04-11T12:15:19.364Z,52.30
2018-04-11T12:17:46.490Z,51.10
2018-04-11T12:20:12.629Z,50.20
2018-04-11T12:22:39.141Z,50.80
2018-04-11T12:25:05.438Z,51.20
2018-04-11T12:27:32.270Z,49.60
2018-04-11T12:29:59.189Z,50.50
2018-04-11T12:32:27.284Z,50.50
2018-04-11T12:34:54.493Z,51.50
2018-04-11T12:37:20.685Z,49.90
2018-04-11T12:39:46.787Z,48.60
2018-04-11T12:42:13.759Z,49.20
2018-04-11T12:44:40.676Z,49.80
2018-04-11T12:47:07.130Z,49.10
2018-04-11T12:49:34.082Z,49.80
2018-04-11T12:52:00.241Z,47.90
2018-04-11T12:54:26.442Z,46.40
2018-04-11T12:56:52.631Z,47.50
2018-04-11T12:59:18.759Z,47.30
2018-04-11T13:01:45.474Z,46.30
2018-04-11T13:04:11.711Z,47.00
2018-04-11T13:06:37.957Z,46.10
2018-04-11T13:09:07.218Z,46.40
2018-04-11T13:11:34.448Z,46.00
2018-04-11T13:14:00.611Z,46.50
2018-04-11T13:16:26.807Z,46.60
2018-04-11T13:18:52.980Z,45.20
2018-04-11T13:21:19.220Z,45.20
2018-04-11T13:23:45.441Z,45.40
2018-04-11T13:26:11.646Z,46.80
2018-04-11T13:28:37.806Z,48.00
2018-04-11T13:31:04.027Z,45.10
2018-04-11T13:33:30.708Z,46.70
2018-04-11T13:35:56.874Z,45.60
2018-04-11T13:38:23.640Z,45.40
2018-04-11T13:40:49.751Z,44.40
2018-04-11T13:43:16.162Z,43.90
2018-04-11T13:45:42.374Z,44.10
2018-04-11T13:48:08.511Z,45.80
2018-04-11T13:50:34.605Z,45.00
2018-04-11T13:53:00.773Z,45.30
2018-04-11T13:55:26.909Z,48.00
2018-04-11T13:57:53.068Z,46.50
2018-04-11T14:00:19.190Z,46.50
2018-04-11T14:02:45.626Z,45.70
2018-04-11T14:05:11.774Z,45.50
2018-04-11T14:07:38.008Z,45.10
2018-04-11T14:10:04.423Z,45.60
2018-04-11T14:12:30.525Z,43.80
2018-04-11T14:14:56.646Z,43.70
2018-04-11T14:17:22.788Z,43.90
2018-04-11T14:19:48.962Z,44.80
2018-04-11T14:22:18.906Z,44.70
2018-04-11T14:24:45.064Z,45.30
2018-04-11T14:27:11.182Z,46.60
2018-04-11T14:29:37.423Z,45.40
2018-04-11T14:32:03.671Z,45.80
2018-04-11T14:34:29.931Z,44.80
2018-04-11T14:36:56.055Z,46.80
2018-04-11T14:39:22.178Z,44.80
2018-04-11T14:41:48.349Z,43.80
2018-04-11T14:44:14.532Z,43.90
2018-04-11T14:46:40.706Z,46.10
2018-04-11T14:49:06.855Z,46.10
2018-04-11T14:51:32.992Z,44.80
2018-04-11T14:54:04.736Z,45.70
2018-04-11T14:56:30.867Z,45.20
2018-04-11T14:58:58.588Z,46.50
2018-04-11T15:01:24.817Z,46.50
2018-04-11T15:03:52.080Z,46.70
2018-04-11T15:06:21.218Z,47.30
2018-04-11T15:08:47.748Z,47.70
2018-04-11T15:11:14.397Z,48.40
2018-04-11T15:13:40.627Z,47.80
2018-04-11T15:16:06.776Z,48.20
2018-04-11T15:18:34.001Z,47.90
2018-04-11T15:21:00.131Z,48.50
2018-04-11T15:23:26.257Z,48.00
2018-04-11T15:25:52.370Z,48.30
2018-04-11T15:28:18.498Z,47.90
2018-04-11T15:30:44.654Z,48.00
2018-04-11T15:33:10.776Z,48.90
2018-04-11T15:35:36.930Z,48.10
2018-04-11T15:38:03.139Z,47.70
2018-04-11T15:40:29.289Z,48.10
2018-04-11T15:42:55.496Z,48.20
2018-04-11T15:45:21.652Z,48.10
2018-04-11T15:47:47.771Z,47.50
2018-04-11T15:50:14.493Z,47.50
2018-04-11T15:52:40.634Z,47.70
2018-04-11T15:55:07.434Z,48.20
2018-04-11T15:57:33.843Z,48.50
2018-04-11T16:00:03.274Z,47.90
2018-04-11T16:02:30.921Z,47.40
2018-04-11T16:04:58.700Z,47.90
2018-04-11T16:07:24.939Z,47.30
2018-04-11T16:09:51.209Z,47.50
2018-04-11T16:12:17.465Z,48.10
2018-04-11T16:14:43.660Z,48.30
2018-04-11T16:17:09.924Z,48.40
2018-04-11T16:19:36.453Z,48.60
2018-04-11T16:22:02.636Z,47.80
2018-04-11T16:24:28.796Z,48.30
2018-04-11T16:26:54.934Z,48.30
2018-04-11T16:29:21.100Z,49.10
2018-04-11T16:31:47.216Z,48.70
2018-04-11T16:34:13.357Z,49.20
2018-04-11T16:36:39.497Z,49.30
2018-04-11T16:39:05.704Z,49.20
2018-04-11T16:41:31.942Z,49.50
2018-04-11T16:43:58.173Z,49.80
2018-04-11T16:46:24.289Z,49.20
2018-04-11T16:48:51.240Z,49.00
2018-04-11T16:51:17.396Z,48.90
2018-04-11T16:53:43.638Z,49.40
2018-04-11T16:56:13.927Z,49.40
2018-04-11T16:58:40.215Z,49.00
2018-04-11T17:01:06.436Z,49.20
2018-04-11T17:03:32.606Z,49.10
2018-04-11T17:05:58.703Z,49.30
2018-04-11T17:08:24.868Z,49.50
2018-04-11T17:10:54.208Z,50.20
2018-04-11T17:13:20.396Z,49.70
2018-04-11T17:15:46.601Z,49.70
2018-04-11T17:18:12.725Z,49.60
2018-04-11T17:20:51.860Z,50.00
2018-04-11T17:23:30.864Z,50.20
2018-04-11T17:26:09.149Z,50.20
2018-04-11T17:28:47.437Z,50.40
2018-04-11T17:34:13.201Z,50.80
2018-04-11T17:36:39.409Z,50.70
2018-04-11T17:39:05.597Z,51.00
2018-04-11T17:41:31.825Z,51.30
2018-04-11T17:44:04.168Z,51.50
2018-04-11T17:46:30.374Z,51.70
2018-04-11T17:48:56.543Z,51.90
2018-04-11T17:51:22.697Z,52.00
2018-04-11T17:53:48.891Z,52.30
2018-04-11T17:56:15.763Z,53.00
2018-04-11T17:58:42.039Z,52.90
2018-04-11T18:01:08.237Z,53.50
2018-04-11T18:03:34.421Z,53.70
2018-04-11T18:06:01.286Z,54.00
2018-04-11T18:08:28.006Z,54.00
2018-04-11T18:10:54.208Z,54.10
2018-04-11T18:13:20.356Z,54.30
2018-04-11T18:15:46.470Z,54.50
2018-04-11T18:18:12.691Z,54.50
2018-04-11T18:20:38.899Z,54.90
2018-04-11T18:23:05.071Z,55.00
2018-04-11T18:25:31.188Z,55.00
2018-04-11T18:27:57.358Z,55.20
2018-04-11T18:30:23.588Z,55.30
2018-04-11T18:32:49.919Z,55.30
2018-04-11T18:35:16.288Z,56.20
2018-04-11T18:37:44.043Z,55.50
2018-04-11T18:40:10.585Z,55.50
2018-04-11T18:42:37.477Z,56.10
2018-04-11T18:45:03.686Z,56.10
2018-04-11T18:47:30.011Z,56.10
2018-04-11T18:50:01.606Z,56.20
2018-04-11T18:52:27.743Z,56.30
2018-04-11T18:54:54.911Z,56.50
2018-04-11T18:57:21.119Z,56.80
2018-04-11T18:59:47.258Z,56.40
2018-04-11T19:02:13.399Z,56.60
2018-04-11T19:04:40.452Z,57.10
2018-04-11T19:07:06.670Z,57.10
2018-04-11T19:09:32.842Z,57.10
2018-04-11T19:11:59.057Z,57.10
2018-04-11T19:14:25.211Z,57.30
2018-04-11T19:16:51.371Z,57.40
2018-04-11T19:19:18.349Z,57.70
2018-04-11T19:21:44.540Z,57.70
2018-04-11T19:24:11.485Z,57.90
2018-04-11T19:26:38.495Z,57.80
2018-04-11T19:29:04.772Z,57.70
2018-04-11T19:31:33.553Z,57.80
2018-04-11T19:33:59.793Z,58.20
2018-04-11T19:36:25.976Z,58.20
2018-04-11T19:38:52.152Z,58.30
2018-04-11T19:41:18.396Z,58.50
2018-04-11T19:43:44.769Z,58.40
2018-04-11T19:46:10.973Z,58.20
2018-04-11T19:48:37.145Z,58.40
2018-04-11T19:51:03.314Z,58.40
2018-04-11T19:53:29.452Z,58.50
2018-04-11T19:55:55.745Z,58.40
2018-04-11T19:58:22.860Z,58.40
2018-04-11T20:00:49.132Z,58.60
2018-04-11T20:03:15.525Z,58.80
2018-04-11T20:05:43.366Z,58.80
2018-04-11T20:08:09.572Z,58.80
2018-04-11T20:10:36.732Z,59.10
2018-04-11T20:13:03.082Z,59.10
2018-04-11T20:15:29.368Z,59.00
2018-04-11T20:17:55.721Z,58.80
2018-04-11T20:20:22.212Z,59.20
2018-04-11T20:22:48.378Z,59.30
2018-04-11T20:25:14.558Z,59.20
2018-04-11T20:27:40.832Z,59.40
2018-04-11T20:30:07.123Z,59.50
2018-04-11T20:32:33.385Z,59.40
2018-04-11T20:34:59.551Z,59.30
2018-04-11T20:37:26.484Z,59.70
2018-04-11T20:39:52.647Z,59.70
2018-04-11T20:42:18.791Z,59.70
2018-04-11T20:44:45.070Z,59.60
2018-04-11T20:47:11.207Z,59.40
2018-04-11T20:49:38.163Z,59.30
2018-04-11T20:52:04.316Z,59.30
2018-04-11T20:54:30.467Z,59.30
2018-04-11T20:56:56.650Z,59.30
2018-04-11T20:59:22.872Z,59.40
2018-04-11T21:01:49.012Z,59.40
2018-04-11T21:04:15.163Z,59.40
2018-04-11T21:06:41.299Z,59.40
2018-04-11T21:09:07.446Z,59.40
2018-04-11T21:11:34.385Z,59.40
2018-04-11T21:14:00.528Z,59.40
2018-04-11T21:16:27.416Z,59.40
2018-04-11T21:18:53.644Z,59.40
2018-04-11T21:21:19.808Z,59.40
2018-04-11T21:23:46.141Z,59.40
2018-04-11T21:26:13.048Z,59.40
2018-04-11T21:28:39.210Z,59.30
2018-04-11T21:31:05.350Z,59.50
2018-04-11T21:33:31.582Z,59.40
2018-04-11T21:35:57.799Z,59.40
2018-04-11T21:38:24.653Z,59.40
2018-04-11T21:40:50.830Z,59.30
2018-04-11T21:43:17.032Z,59.20
2018-04-11T21:45:43.199Z,59.30
2018-04-11T21:48:09.339Z,59.20
2018-04-11T21:50:36.341Z,59.10
2018-04-11T21:53:02.562Z,59.10
2018-04-11T21:55:28.692Z,59.30
2018-04-11T21:57:54.861Z,59.20
2018-04-11T22:00:21.032Z,59.30
2018-04-11T22:02:47.201Z,59.30
2018-04-11T22:05:13.359Z,59.20
2018-04-11T22:07:39.516Z,59.40
2018-04-11T22:10:05.747Z,59.30
2018-04-11T22:12:32.065Z,59.40
2018-04-11T22:14:58.299Z,59.60
2018-04-11T22:17:24.482Z,59.50
2018-04-11T22:19:50.653Z,59.50
2018-04-11T22:22:16.863Z,59.70
2018-04-11T22:24:43.775Z,59.70
2018-04-11T22:27:09.976Z,59.70
2018-04-11T22:29:36.216Z,59.90
2018-04-11T22:32:02.393Z,60.00
2018-04-11T22:34:28.539Z,59.90
2018-04-11T22:36:54.812Z,59.90
2018-04-11T22:39:21.704Z,60.00
2018-04-11T22:41:48.047Z,60.00
2018-04-11T22:44:14.361Z,60.20
2018-04-11T22:46:40.612Z,60.30
2018-04-11T22:49:06.814Z,60.40
2018-04-11T22:51:33.118Z,60.50
2018-04-11T22:53:59.289Z,60.50
2018-04-11T22:56:25.452Z,60.60
2018-04-11T22:58:51.722Z,60.60
2018-04-11T23:01:17.946Z,60.80
2018-04-11T23:03:44.165Z,61.20
2018-04-11T23:06:10.394Z,61.30
2018-04-11T23:08:37.265Z,61.10
2018-04-11T23:11:03.422Z,61.10
2018-04-11T23:13:29.590Z,61.10
2018-04-11T23:15:55.847Z,61.20
2018-04-11T23:18:22.084Z,61.20
2018-04-11T23:23:27.653Z,61.50
2018-04-11T23:25:56.328Z,61.40
2018-04-11T23:31:23.714Z,61.60
2018-04-11T23:33:49.852Z,61.80
2018-04-11T23:36:15.994Z,61.60
2018-04-11T23:38:42.095Z,61.80
2018-04-11T23:41:08.315Z,61.70
2018-04-11T23:43:34.450Z,61.80
2018-04-11T23:46:00.603Z,61.90
2018-04-11T23:48:26.787Z,62.00
2018-04-11T23:50:53.015Z,62.70
2018-04-11T23:53:20.623Z,62.20
2018-04-11T23:55:46.804Z,62.20
2018-04-11T23:58:13.686Z,62.40
